Terminal Aerodrome Forecast
Issued by NWS

Home | Current Version | Previous Version | Text Only | Print | Product List | Glossary On
Versions: 1 2 3 4 5 6 7 8 9 10 11 12 13 14 15 16 17
000
FTUS43 KAPX 241742 CCA
TAFMBL
TAF COR
KMBL 241742Z 2418/2518 20011KT P6SM BKN150
     FM242000 22011KT 6SM -RA OVC090
     FM242200 VRB03KT 5SM -RA SCT025 OVC050
     FM250000 10005KT 4SM -RA OVC035
     FM250400 10010KT 4SM -RA OVC008
     FM251200 18012KT 5SM -RA OVC015
      AMD LTD TO CLD VIS AND WIND=

USA.gov is the U.S. government's official web portal to all federal, state and local government web resources and services.